createdAt,value
2018-09-30T00:00:48.507Z,3.45
2018-09-30T00:03:17.407Z,4.60
2018-09-30T00:05:46.458Z,2.83
2018-09-30T00:08:15.570Z,4.35
2018-09-30T00:10:44.751Z,3.52
2018-09-30T00:13:13.886Z,4.40
2018-09-30T00:15:43.185Z,4.20
2018-09-30T00:18:12.360Z,2.80
2018-09-30T00:20:41.470Z,4.10
2018-09-30T00:23:10.751Z,3.52
2018-09-30T00:25:44.905Z,3.35
2018-09-30T00:28:14.161Z,3.55
2018-09-30T00:30:43.383Z,3.27
2018-09-30T00:33:12.553Z,3.70
2018-09-30T00:35:41.779Z,4.35
2018-09-30T00:38:11.074Z,2.98
2018-09-30T00:40:40.583Z,3.90
2018-09-30T00:43:09.878Z,3.17
2018-09-30T00:45:39.055Z,3.98
2018-09-30T00:48:08.383Z,4.55
2018-09-30T00:50:37.623Z,3.83
2018-09-30T00:53:06.976Z,3.72
2018-09-30T00:55:36.383Z,3.33
2018-09-30T00:58:05.654Z,3.70
2018-09-30T01:00:34.987Z,3.65
2018-09-30T01:03:05.104Z,4.13
2018-09-30T01:05:34.478Z,2.92
2018-09-30T01:08:03.715Z,3.52
2018-09-30T01:10:32.907Z,6.17
2018-09-30T01:13:02.174Z,3.85
2018-09-30T01:15:31.295Z,3.92
2018-09-30T01:18:00.463Z,3.30
2018-09-30T01:20:29.578Z,3.25
2018-09-30T01:22:58.958Z,3.73
2018-09-30T01:25:28.180Z,3.02
2018-09-30T01:27:57.582Z,4.25
2018-09-30T01:30:26.750Z,3.55
2018-09-30T01:32:55.974Z,2.77
2018-09-30T01:35:25.155Z,4.05
2018-09-30T01:37:54.326Z,5.03
2018-09-30T01:40:23.575Z,3.98
2018-09-30T01:42:52.867Z,4.25
2018-09-30T01:45:22.264Z,2.83
2018-09-30T01:47:51.443Z,4.10
2018-09-30T01:50:20.667Z,2.85
2018-09-30T01:52:52.844Z,4.55
2018-09-30T01:55:22.023Z,3.70
2018-09-30T01:57:51.163Z,3.45
2018-09-30T02:00:20.558Z,3.50
2018-09-30T02:02:49.936Z,2.97
2018-09-30T02:05:19.294Z,4.67
2018-09-30T02:10:29.194Z,4.03
2018-09-30T02:12:58.290Z,3.95
2018-09-30T02:15:27.703Z,4.22
2018-09-30T02:17:57.810Z,3.97
2018-09-30T02:20:27.122Z,4.05
2018-09-30T02:22:56.511Z,3.17
2018-09-30T02:25:25.819Z,3.70
2018-09-30T02:27:54.977Z,3.20
2018-09-30T02:30:24.227Z,3.75
2018-09-30T02:32:53.479Z,3.55
2018-09-30T02:35:22.603Z,3.33
2018-09-30T02:37:52.419Z,3.25
2018-09-30T02:40:21.716Z,4.35
2018-09-30T02:42:50.913Z,3.77
2018-09-30T02:45:20.178Z,3.15
2018-09-30T02:47:49.123Z,3.10
2018-09-30T02:50:18.373Z,4.72
2018-09-30T02:52:47.499Z,4.70
2018-09-30T02:55:16.665Z,3.33
2018-09-30T02:57:45.996Z,3.58
2018-09-30T03:00:15.466Z,3.40
2018-09-30T03:02:44.820Z,3.08
2018-09-30T03:05:14.069Z,3.47
2018-09-30T03:07:48.390Z,3.17
2018-09-30T03:10:17.690Z,3.15
2018-09-30T03:12:46.925Z,3.80
2018-09-30T03:15:16.284Z,4.40
2018-09-30T03:17:45.523Z,3.55
2018-09-30T03:20:14.715Z,3.35
2018-09-30T03:22:43.986Z,3.95
2018-09-30T03:25:13.223Z,4.37
2018-09-30T03:27:42.363Z,2.77
2018-09-30T03:30:11.480Z,3.67
2018-09-30T03:32:40.703Z,4.03
2018-09-30T03:35:09.962Z,4.03
2018-09-30T03:37:39.300Z,2.33
2018-09-30T03:40:08.574Z,3.20
2018-09-30T03:42:37.694Z,2.65
2018-09-30T03:45:06.902Z,3.22
2018-09-30T03:47:36.270Z,3.47
2018-09-30T03:50:05.503Z,3.45
2018-09-30T03:52:34.864Z,2.35
2018-09-30T03:55:04.088Z,4.45
2018-09-30T03:57:33.495Z,4.65
2018-09-30T04:00:02.721Z,4.65
2018-09-30T04:02:31.886Z,4.12
2018-09-30T04:05:01.151Z,3.37
2018-09-30T04:07:30.483Z,3.05
2018-09-30T04:10:00.104Z,5.85
2018-09-30T04:12:29.407Z,3.15
2018-09-30T04:14:58.457Z,4.45
2018-09-30T04:17:27.635Z,3.00
2018-09-30T04:19:56.758Z,3.10
2018-09-30T04:22:26.048Z,5.28
2018-09-30T04:24:55.176Z,3.20
2018-09-30T04:27:24.482Z,5.08
2018-09-30T04:29:53.755Z,3.40
2018-09-30T04:32:22.973Z,3.00
2018-09-30T04:34:52.244Z,2.92
2018-09-30T04:37:21.377Z,2.90
2018-09-30T04:39:50.564Z,3.77
2018-09-30T04:42:19.875Z,3.70
2018-09-30T04:44:49.067Z,4.55
2018-09-30T04:47:18.263Z,3.92
2018-09-30T04:49:47.657Z,3.40
2018-09-30T04:52:17.137Z,3.30
2018-09-30T04:54:46.365Z,3.50
2018-09-30T04:57:15.667Z,4.05
2018-09-30T04:59:44.811Z,3.80
2018-09-30T05:02:14.055Z,3.15
2018-09-30T05:04:43.222Z,4.87
2018-09-30T05:07:12.347Z,2.72
2018-09-30T05:09:41.651Z,3.25
2018-09-30T05:12:11.487Z,3.30
2018-09-30T05:14:40.665Z,4.30
2018-09-30T05:17:09.923Z,5.22
2018-09-30T05:19:39.058Z,3.83
2018-09-30T05:22:08.407Z,3.58
2018-09-30T05:24:37.731Z,3.75
2018-09-30T05:27:07.159Z,3.62
2018-09-30T05:29:36.532Z,5.10
2018-09-30T05:32:05.767Z,4.15
2018-09-30T05:34:35.059Z,2.87
2018-09-30T05:37:04.396Z,3.67
2018-09-30T05:39:33.754Z,3.45
2018-09-30T05:42:03.128Z,3.75
2018-09-30T05:44:32.367Z,4.92
2018-09-30T05:47:01.524Z,3.52
2018-09-30T05:49:30.758Z,4.23
2018-09-30T05:52:00.056Z,4.55
2018-09-30T05:54:29.232Z,3.75
2018-09-30T05:56:58.447Z,3.75
2018-09-30T05:59:27.828Z,4.75
2018-09-30T06:01:57.044Z,4.33
2018-09-30T06:04:26.431Z,3.33
2018-09-30T06:06:55.543Z,3.50
2018-09-30T06:09:24.765Z,3.43
2018-09-30T06:11:54.091Z,4.67
2018-09-30T06:14:23.248Z,3.95
2018-09-30T06:16:52.439Z,4.75
2018-09-30T06:19:21.987Z,3.70
2018-09-30T06:21:56.986Z,4.28
2018-09-30T06:24:26.380Z,3.92
2018-09-30T06:26:55.649Z,4.53
2018-09-30T06:29:24.875Z,5.87
2018-09-30T06:31:54.554Z,4.40
2018-09-30T06:34:23.991Z,4.83
2018-09-30T06:36:53.203Z,6.12
2018-09-30T06:39:22.560Z,5.72
2018-09-30T06:41:51.884Z,5.03
2018-09-30T06:44:21.071Z,6.40
2018-09-30T06:46:50.286Z,5.87
2018-09-30T06:49:19.790Z,6.30
2018-09-30T06:51:49.119Z,5.33
2018-09-30T06:54:18.387Z,5.87
2018-09-30T06:56:47.827Z,5.30
2018-09-30T06:59:17.798Z,7.75
2018-09-30T07:01:47.130Z,4.80
2018-09-30T07:04:16.407Z,5.90
2018-09-30T07:06:45.721Z,6.55
2018-09-30T07:09:14.993Z,5.25
2018-09-30T07:11:44.912Z,6.80
2018-09-30T07:14:14.347Z,5.25
2018-09-30T07:16:46.120Z,6.65
2018-09-30T07:19:15.479Z,6.22
2018-09-30T07:21:44.670Z,4.87
2018-09-30T07:24:13.878Z,5.50
2018-09-30T07:26:43.010Z,7.20
2018-09-30T07:29:12.389Z,6.03
2018-09-30T07:31:41.735Z,6.87
2018-09-30T07:34:10.863Z,5.87
2018-09-30T07:36:40.262Z,7.35
2018-09-30T07:39:10.551Z,6.55
2018-09-30T07:41:39.787Z,5.10
2018-09-30T07:44:09.056Z,5.63
2018-09-30T07:46:38.357Z,6.17
2018-09-30T07:49:07.559Z,6.97
2018-09-30T07:51:36.671Z,6.90
2018-09-30T07:54:05.953Z,8.45
2018-09-30T07:56:35.179Z,6.80
2018-09-30T07:59:04.580Z,8.23
2018-09-30T08:01:33.856Z,8.55
2018-09-30T08:04:02.984Z,9.83
2018-09-30T08:06:32.350Z,9.45
2018-09-30T08:09:01.479Z,10.13
2018-09-30T08:11:30.659Z,9.85
2018-09-30T08:13:59.838Z,11.10
2018-09-30T08:16:31.082Z,12.20
2018-09-30T08:19:00.386Z,11.73
2018-09-30T08:21:29.528Z,11.80
2018-09-30T08:23:58.843Z,11.00
2018-09-30T08:26:28.093Z,14.15
2018-09-30T08:28:57.303Z,11.80
2018-09-30T08:31:26.469Z,16.55
2018-09-30T08:33:55.808Z,16.37
2018-09-30T08:36:24.982Z,13.93
2018-09-30T08:38:54.194Z,15.83
2018-09-30T08:41:23.507Z,15.08
2018-09-30T08:43:52.781Z,17.40
2018-09-30T08:46:22.111Z,18.10
2018-09-30T08:48:51.272Z,14.93
2018-09-30T08:51:20.398Z,18.05
2018-09-30T08:53:49.614Z,17.12
2018-09-30T08:56:18.742Z,17.30
2018-09-30T08:58:48.495Z,16.05
2018-09-30T09:01:17.866Z,16.12
2018-09-30T09:03:47.107Z,18.17
2018-09-30T09:06:16.412Z,16.27
2018-09-30T09:08:45.666Z,15.80
2018-09-30T09:11:14.895Z,19.57
2018-09-30T09:13:44.048Z,15.25
2018-09-30T09:16:13.309Z,15.72
2018-09-30T09:18:42.471Z,16.42
2018-09-30T09:21:11.763Z,17.45
2018-09-30T09:23:40.977Z,19.75
2018-09-30T09:26:10.463Z,16.75
2018-09-30T09:28:39.683Z,17.07
2018-09-30T09:31:08.965Z,16.07
2018-09-30T09:33:38.196Z,16.25
2018-09-30T09:36:07.683Z,16.65
2018-09-30T09:38:36.854Z,20.65
2018-09-30T09:41:06.080Z,18.70
2018-09-30T09:43:35.247Z,19.45
2018-09-30T09:46:04.372Z,19.00
2018-09-30T09:48:33.475Z,17.57
2018-09-30T09:51:02.700Z,19.05
2018-09-30T09:53:31.862Z,17.65
2018-09-30T09:56:01.138Z,17.30
2018-09-30T09:58:30.444Z,20.60
2018-09-30T10:01:03.928Z,21.77
2018-09-30T10:03:33.534Z,21.48
2018-09-30T10:06:02.947Z,18.90
2018-09-30T10:08:32.510Z,18.45
2018-09-30T10:11:01.855Z,17.45
2018-09-30T10:13:31.092Z,19.10
2018-09-30T10:16:00.383Z,19.73
2018-09-30T10:18:29.706Z,20.00
2018-09-30T10:20:59.203Z,18.50
2018-09-30T10:23:28.926Z,19.50
2018-09-30T10:25:59.032Z,20.02
2018-09-30T10:28:27.947Z,17.40
2018-09-30T10:30:56.860Z,19.77
2018-09-30T10:33:26.028Z,19.50
2018-09-30T10:35:54.926Z,19.07
2018-09-30T10:38:23.849Z,18.15
2018-09-30T10:40:52.720Z,19.10
2018-09-30T10:43:21.609Z,20.90
2018-09-30T10:45:51.363Z,19.67
2018-09-30T10:48:21.407Z,16.95
2018-09-30T10:50:50.897Z,19.52
2018-09-30T10:53:21.851Z,19.65
2018-09-30T10:55:52.043Z,21.23
2018-09-30T10:58:21.512Z,18.85
2018-09-30T11:00:50.538Z,18.25
2018-09-30T11:03:19.443Z,19.60
2018-09-30T11:05:48.354Z,18.55
2018-09-30T11:08:17.222Z,19.37
2018-09-30T11:10:46.132Z,17.65
2018-09-30T11:13:15.016Z,18.63
2018-09-30T11:15:43.925Z,20.07
2018-09-30T11:18:12.823Z,18.05
2018-09-30T11:20:41.683Z,18.42
2018-09-30T11:23:10.564Z,18.52
2018-09-30T11:25:39.410Z,17.65
2018-09-30T11:28:08.427Z,17.85
2018-09-30T11:30:37.287Z,20.62
2018-09-30T11:33:06.522Z,17.55
2018-09-30T11:35:35.736Z,17.05
2018-09-30T11:38:04.715Z,17.80
2018-09-30T11:40:33.660Z,18.85
2018-09-30T11:43:02.530Z,18.80
2018-09-30T11:45:31.423Z,18.40
2018-09-30T11:48:00.280Z,19.52
2018-09-30T11:50:34.503Z,18.87
2018-09-30T11:55:49.127Z,19.10
2018-09-30T11:58:19.295Z,19.33
2018-09-30T12:00:48.250Z,19.10
2018-09-30T12:03:17.636Z,18.55
2018-09-30T12:05:49.167Z,19.13
2018-09-30T12:08:18.137Z,20.12
2018-09-30T12:10:47.888Z,17.45
2018-09-30T12:13:16.783Z,19.40
2018-09-30T12:15:45.983Z,17.60
2018-09-30T12:18:43.115Z,18.48
2018-09-30T12:21:12.779Z,18.17
2018-09-30T12:23:41.866Z,19.35
2018-09-30T12:26:11.628Z,17.50
2018-09-30T12:28:40.850Z,16.87
2018-09-30T12:31:10.171Z,15.35
2018-09-30T12:33:39.411Z,21.45
2018-09-30T12:36:08.572Z,23.52
2018-09-30T12:38:37.786Z,16.55
2018-09-30T12:41:07.067Z,17.73
2018-09-30T12:43:37.149Z,17.00
2018-09-30T12:46:06.709Z,16.45
2018-09-30T12:48:35.867Z,26.50
2018-09-30T12:51:05.590Z,18.42
2018-09-30T12:53:34.908Z,17.67
2018-09-30T12:56:04.262Z,17.82
2018-09-30T12:58:33.659Z,18.40
2018-09-30T13:01:02.869Z,18.85
2018-09-30T13:03:32.069Z,16.87
2018-09-30T13:06:01.170Z,15.78
2018-09-30T13:08:30.478Z,17.30
2018-09-30T13:10:59.899Z,16.82
2018-09-30T13:13:29.367Z,16.70
2018-09-30T13:15:58.623Z,18.20
2018-09-30T13:18:27.807Z,19.55
2018-09-30T13:20:57.079Z,18.95
2018-09-30T13:23:26.770Z,17.77
2018-09-30T13:25:55.975Z,18.90
2018-09-30T13:28:25.290Z,17.67
2018-09-30T13:30:54.655Z,16.93
2018-09-30T13:33:23.817Z,18.52
2018-09-30T13:35:52.993Z,20.72
2018-09-30T13:38:22.161Z,19.00
2018-09-30T13:40:51.545Z,18.48
2018-09-30T13:43:20.688Z,18.27
2018-09-30T13:45:50.067Z,19.35
2018-09-30T13:48:19.092Z,16.43
2018-09-30T13:50:48.303Z,18.40
2018-09-30T13:53:17.579Z,17.45
2018-09-30T13:55:46.755Z,16.55
2018-09-30T13:58:16.098Z,15.87
2018-09-30T14:00:45.375Z,18.15
2018-09-30T14:03:14.539Z,14.93
2018-09-30T14:05:43.875Z,16.02
2018-09-30T14:08:13.247Z,17.02
2018-09-30T14:10:42.279Z,16.10
2018-09-30T14:13:11.460Z,16.65
2018-09-30T14:15:40.630Z,17.25
2018-09-30T14:18:09.760Z,16.15
2018-09-30T14:20:38.939Z,15.25
2018-09-30T14:23:08.770Z,19.02
2018-09-30T14:25:38.033Z,14.07
2018-09-30T14:28:07.719Z,15.35
2018-09-30T14:30:36.947Z,15.85
2018-09-30T14:33:06.518Z,14.83
2018-09-30T14:35:37.076Z,16.27
2018-09-30T14:38:06.168Z,15.60
2018-09-30T14:40:35.405Z,14.70
2018-09-30T14:43:04.771Z,14.53
2018-09-30T14:45:33.999Z,12.40
2018-09-30T14:48:03.895Z,15.40
2018-09-30T14:50:33.114Z,15.10
2018-09-30T14:53:02.375Z,14.03
2018-09-30T14:55:31.708Z,14.98
2018-09-30T14:58:01.224Z,15.70
2018-09-30T15:00:30.512Z,14.47
2018-09-30T15:02:59.816Z,13.78
2018-09-30T15:05:28.991Z,12.67
2018-09-30T15:07:58.251Z,11.97
2018-09-30T15:10:27.351Z,12.35
2018-09-30T15:12:56.511Z,12.70
2018-09-30T15:15:25.682Z,12.45
2018-09-30T15:17:54.865Z,12.37
2018-09-30T15:20:24.190Z,11.53
2018-09-30T15:22:53.463Z,11.60
2018-09-30T15:25:22.794Z,11.28
2018-09-30T15:27:51.814Z,11.23
2018-09-30T15:30:20.974Z,9.90
2018-09-30T15:32:50.179Z,11.73
2018-09-30T15:35:19.454Z,10.65
2018-09-30T15:37:48.576Z,9.27
2018-09-30T15:40:17.847Z,9.78
2018-09-30T15:42:47.113Z,10.80
2018-09-30T15:45:16.257Z,12.63
2018-09-30T15:47:45.438Z,12.05
2018-09-30T15:50:14.672Z,10.38
2018-09-30T15:52:44.036Z,9.63
2018-09-30T15:55:13.358Z,9.60
2018-09-30T15:57:42.576Z,10.93
2018-09-30T16:00:11.831Z,8.73
2018-09-30T16:02:40.972Z,9.08
2018-09-30T16:05:10.230Z,8.35
2018-09-30T16:07:39.351Z,10.37
2018-09-30T16:10:08.419Z,8.38
2018-09-30T16:12:37.495Z,9.58
2018-09-30T16:15:07.455Z,9.30
2018-09-30T16:17:36.639Z,10.23
2018-09-30T16:20:05.950Z,9.53
2018-09-30T16:22:35.051Z,9.20
2018-09-30T16:25:04.223Z,9.03
2018-09-30T16:27:33.340Z,9.67
2018-09-30T16:30:02.494Z,10.18
2018-09-30T16:32:31.735Z,11.12
2018-09-30T16:35:01.062Z,9.83
2018-09-30T16:37:30.331Z,10.00
2018-09-30T16:39:59.734Z,10.10
2018-09-30T16:42:28.911Z,10.20
2018-09-30T16:44:58.036Z,9.30
2018-09-30T16:47:27.306Z,10.88
2018-09-30T16:49:56.427Z,12.13
2018-09-30T16:52:25.595Z,11.35
2018-09-30T16:54:55.018Z,10.72
2018-09-30T16:57:24.412Z,11.97
2018-09-30T16:59:53.726Z,13.37
2018-09-30T17:02:23.783Z,14.73
2018-09-30T17:04:52.950Z,16.20
2018-09-30T17:07:22.344Z,15.30
2018-09-30T17:09:51.423Z,14.63
2018-09-30T17:12:20.644Z,16.07
2018-09-30T17:14:49.920Z,13.80
2018-09-30T17:17:19.139Z,14.05
2018-09-30T17:19:48.236Z,12.33
2018-09-30T17:22:17.422Z,12.13
2018-09-30T17:24:46.622Z,12.07
2018-09-30T17:27:15.895Z,11.30
2018-09-30T17:29:45.223Z,11.40
2018-09-30T17:32:14.523Z,11.90
2018-09-30T17:34:43.996Z,11.70
2018-09-30T17:37:13.118Z,11.20
2018-09-30T17:39:42.314Z,12.55
2018-09-30T17:42:11.619Z,13.30
2018-09-30T17:44:40.983Z,14.50
2018-09-30T17:47:10.332Z,12.95
2018-09-30T17:49:40.964Z,13.55
2018-09-30T17:52:10.051Z,13.75
2018-09-30T17:54:39.360Z,14.23
2018-09-30T17:57:08.532Z,14.13
2018-09-30T17:59:37.856Z,13.48
2018-09-30T18:02:07.090Z,13.38
2018-09-30T18:04:36.475Z,14.68
2018-09-30T18:07:05.828Z,15.10
2018-09-30T18:09:35.248Z,15.83
2018-09-30T18:12:04.523Z,15.32
2018-09-30T18:14:33.657Z,15.08
2018-09-30T18:17:03.305Z,16.05
2018-09-30T18:19:33.128Z,14.90
2018-09-30T18:22:02.758Z,15.38
2018-09-30T18:24:32.375Z,15.45
2018-09-30T18:27:02.686Z,15.83
2018-09-30T18:29:32.009Z,15.10
2018-09-30T18:32:01.307Z,15.10
2018-09-30T18:34:30.574Z,15.13
2018-09-30T18:37:00.571Z,14.30
2018-09-30T18:39:30.000Z,15.13
2018-09-30T18:41:59.418Z,13.50
2018-09-30T18:44:29.589Z,14.60
2018-09-30T18:46:59.805Z,14.58
2018-09-30T18:49:28.943Z,13.88
2018-09-30T18:51:58.359Z,13.20
2018-09-30T18:54:27.660Z,15.60
2018-09-30T18:56:56.937Z,16.05
2018-09-30T18:59:26.060Z,16.35
2018-09-30T19:01:55.443Z,16.67
2018-09-30T19:04:24.759Z,15.30
2018-09-30T19:06:53.955Z,15.80
2018-09-30T19:09:23.372Z,15.43
2018-09-30T19:11:52.659Z,14.87
2018-09-30T19:14:22.033Z,16.40
2018-09-30T19:16:51.367Z,18.48
2018-09-30T19:19:20.536Z,19.35
2018-09-30T19:21:49.866Z,15.95
2018-09-30T19:24:19.033Z,16.10
2018-09-30T19:26:48.122Z,18.05
2018-09-30T19:29:17.247Z,17.10
2018-09-30T19:31:46.412Z,17.47
2018-09-30T19:34:15.752Z,19.05
2018-09-30T19:36:45.013Z,18.37
2018-09-30T19:39:14.348Z,19.50
2018-09-30T19:41:43.704Z,19.20
2018-09-30T19:44:12.914Z,18.67
2018-09-30T19:46:42.244Z,18.07
2018-09-30T19:49:11.415Z,18.27
2018-09-30T19:51:40.636Z,18.32
2018-09-30T19:54:10.125Z,16.23
2018-09-30T19:56:39.339Z,16.25
2018-09-30T19:59:08.863Z,16.40
2018-09-30T20:01:38.117Z,17.40
2018-09-30T20:04:07.362Z,19.23
2018-09-30T20:06:36.511Z,18.40
2018-09-30T20:09:07.539Z,18.37
2018-09-30T20:11:36.971Z,17.62
2018-09-30T20:14:06.279Z,17.85
2018-09-30T20:16:35.588Z,15.97
2018-09-30T20:19:04.854Z,15.53
2018-09-30T20:21:34.084Z,17.37
2018-09-30T20:24:03.254Z,17.73
2018-09-30T20:26:32.368Z,17.70
2018-09-30T20:29:01.773Z,18.37
2018-09-30T20:31:31.041Z,18.67
2018-09-30T20:34:00.263Z,18.45
2018-09-30T20:36:29.540Z,18.52
2018-09-30T20:38:58.764Z,18.50
2018-09-30T20:41:28.079Z,16.75
2018-09-30T20:43:57.268Z,16.40
2018-09-30T20:46:26.434Z,15.68
2018-09-30T20:48:55.607Z,16.93
2018-09-30T20:51:24.826Z,19.32
2018-09-30T20:53:53.953Z,18.07
2018-09-30T20:56:23.135Z,18.37
2018-09-30T20:58:52.327Z,20.77
2018-09-30T21:01:21.746Z,20.08
2018-09-30T21:03:50.910Z,19.60
2018-09-30T21:06:29.046Z,20.02
2018-09-30T21:08:58.243Z,19.80
2018-09-30T21:11:27.522Z,19.52
2018-09-30T21:13:56.956Z,18.67
2018-09-30T21:16:26.204Z,20.40
2018-09-30T21:18:55.314Z,22.30
2018-09-30T21:21:24.544Z,24.23
2018-09-30T21:23:53.750Z,24.18
2018-09-30T21:26:22.949Z,23.70
2018-09-30T21:28:52.127Z,24.25
2018-09-30T21:31:21.499Z,22.10
2018-09-30T21:33:50.826Z,20.97
2018-09-30T21:36:20.200Z,20.77
2018-09-30T21:38:49.448Z,22.60
2018-09-30T21:41:18.635Z,21.87
2018-09-30T21:43:47.872Z,22.70
2018-09-30T21:46:17.031Z,22.30
2018-09-30T21:48:46.243Z,25.27
2018-09-30T21:51:15.428Z,23.07
2018-09-30T21:53:44.574Z,22.80
2018-09-30T21:56:13.724Z,23.83
2018-09-30T21:58:43.015Z,22.55
2018-09-30T22:01:12.399Z,21.73
2018-09-30T22:03:41.715Z,21.82
2018-09-30T22:06:11.080Z,22.58
2018-09-30T22:08:40.319Z,24.20
2018-09-30T22:11:09.591Z,24.00
2018-09-30T22:13:38.803Z,24.15
2018-09-30T22:16:08.502Z,23.38
2018-09-30T22:18:37.813Z,23.20
2018-09-30T22:21:07.124Z,24.20
2018-09-30T22:23:36.327Z,22.60
2018-09-30T22:26:05.506Z,20.52
2018-09-30T22:28:34.787Z,20.90
2018-09-30T22:31:04.014Z,23.22
2018-09-30T22:33:33.291Z,23.32
2018-09-30T22:36:02.606Z,22.80
2018-09-30T22:38:31.811Z,22.48
2018-09-30T22:41:01.182Z,24.50
2018-09-30T22:43:30.310Z,21.82
2018-09-30T22:45:59.474Z,22.90
2018-09-30T22:48:28.598Z,20.82
2018-09-30T22:50:57.890Z,19.52
2018-09-30T22:53:27.280Z,19.12
2018-09-30T22:55:56.602Z,19.97
2018-09-30T22:58:25.979Z,21.95
2018-09-30T23:00:55.091Z,21.05
2018-09-30T23:03:24.322Z,21.20
2018-09-30T23:05:53.444Z,23.80
2018-09-30T23:08:22.562Z,23.07
2018-09-30T23:10:51.649Z,23.43
2018-09-30T23:13:20.875Z,23.67
2018-09-30T23:15:50.694Z,23.70
2018-09-30T23:18:19.996Z,23.00
2018-09-30T23:20:49.201Z,21.00
2018-09-30T23:23:18.359Z,22.30
2018-09-30T23:25:47.576Z,22.95
2018-09-30T23:28:16.911Z,23.05
2018-09-30T23:30:46.088Z,23.95
2018-09-30T23:33:15.376Z,22.47
2018-09-30T23:35:44.765Z,24.72
2018-09-30T23:38:13.986Z,24.63
2018-09-30T23:40:43.258Z,23.73
2018-09-30T23:43:12.374Z,23.67
2018-09-30T23:45:41.578Z,25.20
2018-09-30T23:48:10.633Z,24.10
2018-09-30T23:50:39.744Z,24.98
2018-09-30T23:53:09.030Z,23.40
2018-09-30T23:55:38.355Z,22.82
2018-09-30T23:58:13.776Z,22.45
